Houn Maru — JG5489 — position and weather

sailwx.info

Track history (hours):
 
Tides and Currents Weather Stations Pressure Air Temp Water Temp Dewpoint Dewpoint Depression Visibility Wind Speed Wind Dir Waves Ship Positions

Houn Maru

Last reported at 2017-Nov-20 00:18 UTC. Time now 2017-Nov-21 02:47 UTC.
Position N 34°25' E 135°14'.

Length 91 m; draft 6 m.

Type: Tanker. MMSI: 431101172.

Date/timePositionNaut miles runAvg speedWind from/ knotsBaromVisibWave heightAir tempDewpointWater temp
2017-Nov-20 00:18N 34°25' E 135°14'0 0.6
2017-Nov-20 00:00N 34°25' E 135°14'3 6.1
2017-Nov-19 23:29N 34°26' E 135°11'611.1
2017-Nov-19 22:59N 34°29' E 135°16'4 9.0
2017-Nov-19 22:30N 34°31' E 135°21'0 0.1
2017-Nov-19 21:59N 34°31' E 135°21'0 0.0
2017-Nov-19 21:29N 34°31' E 135°21'0 0.0
2017-Nov-19 20:53N 34°31' E 135°21'0 0.1
2017-Nov-19 20:17N 34°31' E 135°21'0 0.0
2017-Nov-19 19:53N 34°31' E 135°21'0 0.0
2017-Nov-19 18:41N 34°31' E 135°21'0 0.0
2017-Nov-19 18:29N 34°31' E 135°21'0 0.0
2017-Nov-19 17:59N 34°31' E 135°21'0 0.0
2017-Nov-19 17:29N 34°31' E 135°21'0 0.0
2017-Nov-19 16:47N 34°31' E 135°21'0 0.0
2017-Nov-19 16:29N 34°31' E 135°21'0 0.0
2017-Nov-19 14:35N 34°31' E 135°21'0 0.1
2017-Nov-19 14:29N 34°31' E 135°21'0 0.0
2017-Nov-19 12:59N 34°31' E 135°21'0 0.0
2017-Nov-19 11:17N 34°31' E 135°21'0 0.0
2017-Nov-19 10:59N 34°31' E 135°21'0 0.0
2017-Nov-19 10:23N 34°31' E 135°21'0 0.0
2017-Nov-19 09:59N 34°31' E 135°21'0 0.0
2017-Nov-19 09:29N 34°31' E 135°21'1 1.1
2017-Nov-19 08:59N 34°31' E 135°21'4 8.0
2017-Nov-19 08:30N 34°33' E 135°26'0 0.0
2017-Nov-18 23:23N 34°33' E 135°26'1 1.6
2017-Nov-18 23:00N 34°33' E 135°25'1 1.9
2017-Nov-18 22:30N 34°33' E 135°24'1 2.4
2017-Nov-18 22:00N 34°32' E 135°24'1 0.0
2017-Nov-17 08:23N 34°31' E 135°24'2 4.4
2017-Nov-17 08:00N 34°32' E 135°23'612.9
2017-Nov-17 07:30N 34°29' E 135°16'611.3
2017-Nov-17 07:00N 34°25' E 135°11'3 4.9
2017-Nov-17 06:29N 34°25' E 135°14'0 0.0
2017-Nov-17 01:52N 34°25' E 135°14'0 0.3
2017-Nov-17 01:29N 34°25' E 135°14'3 5.3
2017-Nov-17 01:00N 34°25' E 135°11'510.2
2017-Nov-17 00:30N 34°29' E 135°15'5 6.0
2017-Nov-16 23:40N 34°31' E 135°21'0 0.0
2017-Nov-16 23:28N 34°31' E 135°21'0 0.0
2017-Nov-16 22:58N 34°31' E 135°21'0 0.0
2017-Nov-16 22:22N 34°31' E 135°21'0 0.0
2017-Nov-16 21:46N 34°31' E 135°21'0 0.2
2017-Nov-16 21:28N 34°31' E 135°21'0 0.1
2017-Nov-16 20:58N 34°31' E 135°21'0 0.0
2017-Nov-16 20:28N 34°31' E 135°21'0 0.0
2017-Nov-16 19:46N 34°31' E 135°21'0 0.0
2017-Nov-16 19:28N 34°31' E 135°21'0 0.0
2017-Nov-16 18:58N 34°31' E 135°21'0 0.0
2017-Nov-16 18:28N 34°31' E 135°21'0 0.0
2017-Nov-16 17:58N 34°31' E 135°21'0 0.1
2017-Nov-16 17:22N 34°31' E 135°21'0 0.0
2017-Nov-16 16:16N 34°31' E 135°21'0 0.0
2017-Nov-16 15:58N 34°31' E 135°21'0 0.0
2017-Nov-16 15:28N 34°31' E 135°21'0 0.1
2017-Nov-16 14:40N 34°31' E 135°21'0 0.1
2017-Nov-16 14:10N 34°31' E 135°21'0 0.0
2017-Nov-16 12:58N 34°31' E 135°21'0 0.0
2017-Nov-16 12:28N 34°31' E 135°21'0 0.0
2017-Nov-16 11:46N 34°31' E 135°21'0 0.0
2017-Nov-16 11:22N 34°31' E 135°21'0 0.0
2017-Nov-16 10:40N 34°31' E 135°21'0 0.0
2017-Nov-16 10:28N 34°31' E 135°21'0 0.0
2017-Nov-16 09:58N 34°31' E 135°21'0 0.0
2017-Nov-16 09:28N 34°31' E 135°21'0 0.0
2017-Nov-16 08:58N 34°31' E 135°21'0 0.0
2017-Nov-16 08:28N 34°31' E 135°21'0 0.1
2017-Nov-16 07:58N 34°31' E 135°21'2 3.1
2017-Nov-16 07:28N 34°32' E 135°22'3 6.7
2017-Nov-16 07:00N 34°33' E 135°26'0 0.0
2017-Nov-15 23:46N 34°33' E 135°26'0 0.0
2017-Nov-15 23:16N 34°33' E 135°26'0 0.0
2017-Nov-15 22:58N 34°33' E 135°26'0 0.2
2017-Nov-15 22:30N 34°33' E 135°26'3 6.0
2017-Nov-15 22:01N 34°32' E 135°22'2 2.4
2017-Nov-15 21:21N 34°31' E 135°21'0 0.0
2017-Nov-15 20:51N 34°31' E 135°21'0 0.0
2017-Nov-15 20:27N 34°31' E 135°21'0 0.0
2017-Nov-15 19:45N 34°31' E 135°21'0 0.0
2017-Nov-15 19:27N 34°31' E 135°21'0 0.0
2017-Nov-15 18:57N 34°31' E 135°21'0 0.0
2017-Nov-15 18:21N 34°31' E 135°21'0 0.1
2017-Nov-15 17:57N 34°31' E 135°21'0 0.1
2017-Nov-15 17:27N 34°31' E 135°21'0 0.1
2017-Nov-15 16:57N 34°31' E 135°21'0 0.0
2017-Nov-15 16:27N 34°31' E 135°21'0 0.0
2017-Nov-15 15:57N 34°31' E 135°21'0 0.0
2017-Nov-15 15:27N 34°31' E 135°21'0 0.0
2017-Nov-15 14:51N 34°31' E 135°21'0 0.0
2017-Nov-15 14:15N 34°31' E 135°21'0 0.0
2017-Nov-15 13:45N 34°31' E 135°21'0 0.0
2017-Nov-15 13:27N 34°31' E 135°21'0 0.0
2017-Nov-15 12:51N 34°31' E 135°21'0 0.0
2017-Nov-15 11:03N 34°31' E 135°21'0 0.0
2017-Nov-15 09:57N 34°31' E 135°21'0 0.0
2017-Nov-15 09:09N 34°31' E 135°21'0 0.0
2017-Nov-15 08:57N 34°31' E 135°21'0 0.0
2017-Nov-15 08:27N 34°31' E 135°21'0 0.0
2017-Nov-15 07:27N 34°31' E 135°21'0 0.0
2017-Nov-15 06:45N 34°31' E 135°21'0 0.6
2017-Nov-15 06:30N 34°31' E 135°21'611.6
2017-Nov-15 06:00N 34°28' E 135°15'5 9.4
2017-Nov-15 05:30N 34°24' E 135°12'2 4.3
2017-Nov-15 04:59N 34°25' E 135°14'0 0.0
2017-Nov-15 00:25N 34°25' E 135°14'0 0.6
2017-Nov-14 23:59N 34°25' E 135°14'3 6.3
2017-Nov-14 23:30N 34°25' E 135°11'611.8
2017-Nov-14 23:00N 34°29' E 135°16'4 8.6
2017-Nov-14 22:30N 34°31' E 135°21'0 0.1
2017-Nov-14 21:59N 34°31' E 135°21'0 0.0
2017-Nov-14 20:41N 34°31' E 135°21'0 0.0
2017-Nov-14 20:29N 34°31' E 135°21'0 0.0
2017-Nov-14 19:05N 34°31' E 135°21'0 0.0
2017-Nov-14 18:59N 34°31' E 135°21'0 0.0
2017-Nov-14 18:11N 34°31' E 135°21'0 0.0
2017-Nov-14 17:59N 34°31' E 135°21'0 0.0
2017-Nov-14 17:29N 34°31' E 135°21'0 0.1
2017-Nov-14 16:47N 34°31' E 135°21'0 0.0
2017-Nov-14 15:29N 34°31' E 135°21'0 0.1
2017-Nov-14 14:59N 34°31' E 135°21'0 0.0
2017-Nov-14 14:05N 34°31' E 135°21'0 0.1
2017-Nov-14 13:59N 34°31' E 135°21'0 0.0
2017-Nov-14 13:11N 34°31' E 135°21'0 0.0
2017-Nov-14 12:59N 34°31' E 135°21'0 0.0
2017-Nov-14 10:59N 34°31' E 135°21'0 0.0
2017-Nov-14 08:59N 34°31' E 135°21'1 2.6
2017-Nov-14 08:30N 34°32' E 135°22'3 6.6
2017-Nov-14 08:00N 34°33' E 135°26'0 0.0
2017-Nov-13 22:39N 34°33' E 135°26'0 0.0
2017-Nov-13 22:30N 34°33' E 135°26'3 5.2
2017-Nov-13 22:00N 34°33' E 135°22'10 0.5
2017-Nov-13 01:57N 34°25' E 135°14'0 0.6
2017-Nov-13 01:30N 34°25' E 135°14'3 6.0
2017-Nov-13 00:59N 34°26' E 135°11'612.0
2017-Nov-13 00:29N 34°29' E 135°17'4 8.2
2017-Nov-13 00:00N 34°31' E 135°21'0 0.1
2017-Nov-12 23:17N 34°31' E 135°21'0 0.0
2017-Nov-12 22:41N 34°31' E 135°21'0 0.1
2017-Nov-12 22:29N 34°31' E 135°21'0 0.0
2017-Nov-12 21:59N 34°31' E 135°21'0 0.0
2017-Nov-12 21:29N 34°31' E 135°21'0 0.0
2017-Nov-12 20:17N 34°31' E 135°21'0 0.1
2017-Nov-12 19:47N 34°31' E 135°21'0 0.0
2017-Nov-12 19:17N 34°31' E 135°21'0 0.0
2017-Nov-12 15:53N 34°31' E 135°21'0 0.0
2017-Nov-12 13:35N 34°31' E 135°21'0 0.0
2017-Nov-12 13:29N 34°31' E 135°21'0 0.0
2017-Nov-12 12:59N 34°31' E 135°21'0 0.0
2017-Nov-12 12:29N 34°31' E 135°21'0 0.0
2017-Nov-12 11:59N 34°31' E 135°21'0 0.0
2017-Nov-12 11:11N 34°31' E 135°21'0 0.0
2017-Nov-12 10:47N 34°31' E 135°21'0 0.0
2017-Nov-12 09:17N 34°31' E 135°21'1 2.4
2017-Nov-12 08:59N 34°31' E 135°21'4 7.6
2017-Nov-12 08:29N 34°33' E 135°26'0 0.0
2017-Nov-12 00:02N 34°33' E 135°26'0 0.0
2017-Nov-11 23:38N 34°33' E 135°26'0 0.0
2017-Nov-11 23:20N 34°33' E 135°26'0 1.1
2017-Nov-11 23:01N 34°33' E 135°25'2 3.7
2017-Nov-11 22:30N 34°34' E 135°23'1 2.2
2017-Nov-11 22:00N 34°35' E 135°24'3 5.3
2017-Nov-11 21:30N 34°35' E 135°27'0 0.0
2017-Nov-10 07:23N 34°35' E 135°27'1 3.2
2017-Nov-10 07:00N 34°35' E 135°26'510.3
2017-Nov-10 06:30N 34°34' E 135°20'712.6
2017-Nov-10 05:59N 34°29' E 135°14'511.2
2017-Nov-10 05:30N 34°24' E 135°12'2 0.5
2017-Nov-10 00:27N 34°25' E 135°14'  
Track history (hours):
 
Tides and Currents Weather Stations Pressure Air Temp Water Temp Dewpoint Dewpoint Depression Visibility Wind Speed Wind Dir Waves Ship Positions

Houn Maru

Last reported at 2017-Nov-20 00:18 UTC. Time now 2017-Nov-21 02:47 UTC.
Position N 34°25' E 135°14'.

Length 91 m; draft 6 m.

Type: Tanker. MMSI: 431101172.

Date/timePositionNaut miles runAvg speedWind from/ knotsBaromVisibWave heightAir tempDewpointWater temp
2017-Nov-20 00:18N 34°25' E 135°14'0 0.6
2017-Nov-20 00:00N 34°25' E 135°14'3 6.1
2017-Nov-19 23:29N 34°26' E 135°11'611.1
2017-Nov-19 22:59N 34°29' E 135°16'4 9.0
2017-Nov-19 22:30N 34°31' E 135°21'0 0.1
2017-Nov-19 21:59N 34°31' E 135°21'0 0.0
2017-Nov-19 21:29N 34°31' E 135°21'0 0.0
2017-Nov-19 20:53N 34°31' E 135°21'0 0.1
2017-Nov-19 20:17N 34°31' E 135°21'0 0.0
2017-Nov-19 19:53N 34°31' E 135°21'0 0.0
2017-Nov-19 18:41N 34°31' E 135°21'0 0.0
2017-Nov-19 18:29N 34°31' E 135°21'0 0.0
2017-Nov-19 17:59N 34°31' E 135°21'0 0.0
2017-Nov-19 17:29N 34°31' E 135°21'0 0.0
2017-Nov-19 16:47N 34°31' E 135°21'0 0.0
2017-Nov-19 16:29N 34°31' E 135°21'0 0.0
2017-Nov-19 14:35N 34°31' E 135°21'0 0.1
2017-Nov-19 14:29N 34°31' E 135°21'0 0.0
2017-Nov-19 12:59N 34°31' E 135°21'0 0.0
2017-Nov-19 11:17N 34°31' E 135°21'0 0.0
2017-Nov-19 10:59N 34°31' E 135°21'0 0.0
2017-Nov-19 10:23N 34°31' E 135°21'0 0.0
2017-Nov-19 09:59N 34°31' E 135°21'0 0.0
2017-Nov-19 09:29N 34°31' E 135°21'1 1.1
2017-Nov-19 08:59N 34°31' E 135°21'4 8.0
2017-Nov-19 08:30N 34°33' E 135°26'0 0.0
2017-Nov-18 23:23N 34°33' E 135°26'1 1.6
2017-Nov-18 23:00N 34°33' E 135°25'1 1.9
2017-Nov-18 22:30N 34°33' E 135°24'1 2.4
2017-Nov-18 22:00N 34°32' E 135°24'1 0.0
2017-Nov-17 08:23N 34°31' E 135°24'2 4.4
2017-Nov-17 08:00N 34°32' E 135°23'612.9
2017-Nov-17 07:30N 34°29' E 135°16'611.3
2017-Nov-17 07:00N 34°25' E 135°11'3 4.9
2017-Nov-17 06:29N 34°25' E 135°14'0 0.0
2017-Nov-17 01:52N 34°25' E 135°14'0 0.3
2017-Nov-17 01:29N 34°25' E 135°14'3 5.3
2017-Nov-17 01:00N 34°25' E 135°11'510.2
2017-Nov-17 00:30N 34°29' E 135°15'5 6.0
2017-Nov-16 23:40N 34°31' E 135°21'0 0.0
2017-Nov-16 23:28N 34°31' E 135°21'0 0.0
2017-Nov-16 22:58N 34°31' E 135°21'0 0.0
2017-Nov-16 22:22N 34°31' E 135°21'0 0.0
2017-Nov-16 21:46N 34°31' E 135°21'0 0.2
2017-Nov-16 21:28N 34°31' E 135°21'0 0.1
2017-Nov-16 20:58N 34°31' E 135°21'0 0.0
2017-Nov-16 20:28N 34°31' E 135°21'0 0.0
2017-Nov-16 19:46N 34°31' E 135°21'0 0.0
2017-Nov-16 19:28N 34°31' E 135°21'0 0.0
2017-Nov-16 18:58N 34°31' E 135°21'0 0.0
2017-Nov-16 18:28N 34°31' E 135°21'0 0.0
2017-Nov-16 17:58N 34°31' E 135°21'0 0.1
2017-Nov-16 17:22N 34°31' E 135°21'0 0.0
2017-Nov-16 16:16N 34°31' E 135°21'0 0.0
2017-Nov-16 15:58N 34°31' E 135°21'0 0.0
2017-Nov-16 15:28N 34°31' E 135°21'0 0.1
2017-Nov-16 14:40N 34°31' E 135°21'0 0.1
2017-Nov-16 14:10N 34°31' E 135°21'0 0.0
2017-Nov-16 12:58N 34°31' E 135°21'0 0.0
2017-Nov-16 12:28N 34°31' E 135°21'0 0.0
2017-Nov-16 11:46N 34°31' E 135°21'0 0.0
2017-Nov-16 11:22N 34°31' E 135°21'0 0.0
2017-Nov-16 10:40N 34°31' E 135°21'0 0.0
2017-Nov-16 10:28N 34°31' E 135°21'0 0.0
2017-Nov-16 09:58N 34°31' E 135°21'0 0.0
2017-Nov-16 09:28N 34°31' E 135°21'0 0.0
2017-Nov-16 08:58N 34°31' E 135°21'0 0.0
2017-Nov-16 08:28N 34°31' E 135°21'0 0.1
2017-Nov-16 07:58N 34°31' E 135°21'2 3.1
2017-Nov-16 07:28N 34°32' E 135°22'3 6.7
2017-Nov-16 07:00N 34°33' E 135°26'0 0.0
2017-Nov-15 23:46N 34°33' E 135°26'0 0.0
2017-Nov-15 23:16N 34°33' E 135°26'0 0.0
2017-Nov-15 22:58N 34°33' E 135°26'0 0.2
2017-Nov-15 22:30N 34°33' E 135°26'3 6.0
2017-Nov-15 22:01N 34°32' E 135°22'2 2.4
2017-Nov-15 21:21N 34°31' E 135°21'0 0.0
2017-Nov-15 20:51N 34°31' E 135°21'0 0.0
2017-Nov-15 20:27N 34°31' E 135°21'0 0.0
2017-Nov-15 19:45N 34°31' E 135°21'0 0.0
2017-Nov-15 19:27N 34°31' E 135°21'0 0.0
2017-Nov-15 18:57N 34°31' E 135°21'0 0.0
2017-Nov-15 18:21N 34°31' E 135°21'0 0.1
2017-Nov-15 17:57N 34°31' E 135°21'0 0.1
2017-Nov-15 17:27N 34°31' E 135°21'0 0.1
2017-Nov-15 16:57N 34°31' E 135°21'0 0.0
2017-Nov-15 16:27N 34°31' E 135°21'0 0.0
2017-Nov-15 15:57N 34°31' E 135°21'0 0.0
2017-Nov-15 15:27N 34°31' E 135°21'0 0.0
2017-Nov-15 14:51N 34°31' E 135°21'0 0.0
2017-Nov-15 14:15N 34°31' E 135°21'0 0.0
2017-Nov-15 13:45N 34°31' E 135°21'0 0.0
2017-Nov-15 13:27N 34°31' E 135°21'0 0.0
2017-Nov-15 12:51N 34°31' E 135°21'0 0.0
2017-Nov-15 11:03N 34°31' E 135°21'0 0.0
2017-Nov-15 09:57N 34°31' E 135°21'0 0.0
2017-Nov-15 09:09N 34°31' E 135°21'0 0.0
2017-Nov-15 08:57N 34°31' E 135°21'0 0.0
2017-Nov-15 08:27N 34°31' E 135°21'0 0.0
2017-Nov-15 07:27N 34°31' E 135°21'0 0.0
2017-Nov-15 06:45N 34°31' E 135°21'0 0.6
2017-Nov-15 06:30N 34°31' E 135°21'611.6
2017-Nov-15 06:00N 34°28' E 135°15'5 9.4
2017-Nov-15 05:30N 34°24' E 135°12'2 4.3
2017-Nov-15 04:59N 34°25' E 135°14'0 0.0
2017-Nov-15 00:25N 34°25' E 135°14'0 0.6
2017-Nov-14 23:59N 34°25' E 135°14'3 6.3
2017-Nov-14 23:30N 34°25' E 135°11'611.8
2017-Nov-14 23:00N 34°29' E 135°16'4 8.6
2017-Nov-14 22:30N 34°31' E 135°21'0 0.1
2017-Nov-14 21:59N 34°31' E 135°21'0 0.0
2017-Nov-14 20:41N 34°31' E 135°21'0 0.0
2017-Nov-14 20:29N 34°31' E 135°21'0 0.0
2017-Nov-14 19:05N 34°31' E 135°21'0 0.0
2017-Nov-14 18:59N 34°31' E 135°21'0 0.0
2017-Nov-14 18:11N 34°31' E 135°21'0 0.0
2017-Nov-14 17:59N 34°31' E 135°21'0 0.0
2017-Nov-14 17:29N 34°31' E 135°21'0 0.1
2017-Nov-14 16:47N 34°31' E 135°21'0 0.0
2017-Nov-14 15:29N 34°31' E 135°21'0 0.1
2017-Nov-14 14:59N 34°31' E 135°21'0 0.0
2017-Nov-14 14:05N 34°31' E 135°21'0 0.1
2017-Nov-14 13:59N 34°31' E 135°21'0 0.0
2017-Nov-14 13:11N 34°31' E 135°21'0 0.0
2017-Nov-14 12:59N 34°31' E 135°21'0 0.0
2017-Nov-14 10:59N 34°31' E 135°21'0 0.0
2017-Nov-14 08:59N 34°31' E 135°21'1 2.6
2017-Nov-14 08:30N 34°32' E 135°22'3 6.6
2017-Nov-14 08:00N 34°33' E 135°26'0 0.0
2017-Nov-13 22:39N 34°33' E 135°26'0 0.0
2017-Nov-13 22:30N 34°33' E 135°26'3 5.2
2017-Nov-13 22:00N 34°33' E 135°22'10 0.5
2017-Nov-13 01:57N 34°25' E 135°14'0 0.6
2017-Nov-13 01:30N 34°25' E 135°14'3 6.0
2017-Nov-13 00:59N 34°26' E 135°11'612.0
2017-Nov-13 00:29N 34°29' E 135°17'4 8.2
2017-Nov-13 00:00N 34°31' E 135°21'0 0.1
2017-Nov-12 23:17N 34°31' E 135°21'0 0.0
2017-Nov-12 22:41N 34°31' E 135°21'0 0.1
2017-Nov-12 22:29N 34°31' E 135°21'0 0.0
2017-Nov-12 21:59N 34°31' E 135°21'0 0.0
2017-Nov-12 21:29N 34°31' E 135°21'0 0.0
2017-Nov-12 20:17N 34°31' E 135°21'0 0.1
2017-Nov-12 19:47N 34°31' E 135°21'0 0.0
2017-Nov-12 19:17N 34°31' E 135°21'0 0.0
2017-Nov-12 15:53N 34°31' E 135°21'0 0.0
2017-Nov-12 13:35N 34°31' E 135°21'0 0.0
2017-Nov-12 13:29N 34°31' E 135°21'0 0.0
2017-Nov-12 12:59N 34°31' E 135°21'0 0.0
2017-Nov-12 12:29N 34°31' E 135°21'0 0.0
2017-Nov-12 11:59N 34°31' E 135°21'0 0.0
2017-Nov-12 11:11N 34°31' E 135°21'0 0.0
2017-Nov-12 10:47N 34°31' E 135°21'0 0.0
2017-Nov-12 09:17N 34°31' E 135°21'1 2.4
2017-Nov-12 08:59N 34°31' E 135°21'4 7.6
2017-Nov-12 08:29N 34°33' E 135°26'0 0.0
2017-Nov-12 00:02N 34°33' E 135°26'0 0.0
2017-Nov-11 23:38N 34°33' E 135°26'0 0.0
2017-Nov-11 23:20N 34°33' E 135°26'0 1.1
2017-Nov-11 23:01N 34°33' E 135°25'2 3.7
2017-Nov-11 22:30N 34°34' E 135°23'1 2.2
2017-Nov-11 22:00N 34°35' E 135°24'3 5.3
2017-Nov-11 21:30N 34°35' E 135°27'0 0.0
2017-Nov-10 07:23N 34°35' E 135°27'1 3.2
2017-Nov-10 07:00N 34°35' E 135°26'510.3
2017-Nov-10 06:30N 34°34' E 135°20'712.6
2017-Nov-10 05:59N 34°29' E 135°14'511.2
2017-Nov-10 05:30N 34°24' E 135°12'2 0.5
2017-Nov-10 00:27N 34°25' E 135°14'  

Dump ship's entire track history